sensor_id;sensor_type;location;lat;lon;timestamp;pressure;altitude;pressure_sealevel;temperature
69545;BMP180;56766;52.260;20.746;2024-02-23T00:01:32;98323.60;;;7.00
69545;BMP180;56766;52.260;20.746;2024-02-23T00:03:59;98320.40;;;7.00
69545;BMP180;56766;52.260;20.746;2024-02-23T00:06:25;98314.80;;;6.96
69545;BMP180;56766;52.260;20.746;2024-02-23T00:08:54;98314.20;;;6.98
69545;BMP180;56766;52.260;20.746;2024-02-23T00:11:21;98318.00;;;7.00
69545;BMP180;56766;52.260;20.746;2024-02-23T00:13:48;98317.40;;;7.00
69545;BMP180;56766;52.260;20.746;2024-02-23T00:16:15;98309.00;;;7.00
69545;BMP180;56766;52.260;20.746;2024-02-23T00:18:41;98321.80;;;7.00
69545;BMP180;56766;52.260;20.746;2024-02-23T00:21:08;98314.80;;;7.00
69545;BMP180;56766;52.260;20.746;2024-02-23T00:23:34;98316.60;;;7.00
69545;BMP180;56766;52.260;20.746;2024-02-23T00:26:02;98325.00;;;7.00
69545;BMP180;56766;52.260;20.746;2024-02-23T00:28:28;98323.40;;;7.00
69545;BMP180;56766;52.260;20.746;2024-02-23T00:30:55;98312.80;;;6.98
69545;BMP180;56766;52.260;20.746;2024-02-23T00:33:22;98316.60;;;6.92
69545;BMP180;56766;52.260;20.746;2024-02-23T00:35:48;98325.40;;;6.92
69545;BMP180;56766;52.260;20.746;2024-02-23T00:38:15;98317.80;;;6.90
69545;BMP180;56766;52.260;20.746;2024-02-23T00:40:42;98312.80;;;6.90
69545;BMP180;56766;52.260;20.746;2024-02-23T00:43:08;98305.00;;;6.90
69545;BMP180;56766;52.260;20.746;2024-02-23T00:45:35;98307.20;;;6.90
69545;BMP180;56766;52.260;20.746;2024-02-23T00:48:02;98304.40;;;6.92
69545;BMP180;56766;52.260;20.746;2024-02-23T00:50:29;98302.40;;;6.90
69545;BMP180;56766;52.260;20.746;2024-02-23T00:52:55;98296.20;;;6.90
69545;BMP180;56766;52.260;20.746;2024-02-23T00:55:22;98289.00;;;6.90
69545;BMP180;56766;52.260;20.746;2024-02-23T00:57:51;98289.60;;;6.98
69545;BMP180;56766;52.260;20.746;2024-02-23T01:00:18;98278.80;;;7.00
69545;BMP180;56766;52.260;20.746;2024-02-23T01:02:45;98271.40;;;7.00
69545;BMP180;56766;52.260;20.746;2024-02-23T01:05:11;98272.20;;;7.00
69545;BMP180;56766;52.260;20.746;2024-02-23T01:07:38;98274.20;;;7.00
69545;BMP180;56766;52.260;20.746;2024-02-23T01:10:06;98270.20;;;7.00
69545;BMP180;56766;52.260;20.746;2024-02-23T01:12:32;98268.40;;;7.00
69545;BMP180;56766;52.260;20.746;2024-02-23T01:14:59;98256.60;;;7.00
69545;BMP180;56766;52.260;20.746;2024-02-23T01:17:26;98256.80;;;7.00
69545;BMP180;56766;52.260;20.746;2024-02-23T01:19:52;98257.40;;;7.10
69545;BMP180;56766;52.260;20.746;2024-02-23T01:22:19;98259.40;;;7.06
69545;BMP180;56766;52.260;20.746;2024-02-23T01:24:46;98255.40;;;7.00
69545;BMP180;56766;52.260;20.746;2024-02-23T01:27:12;98250.00;;;7.00
69545;BMP180;56766;52.260;20.746;2024-02-23T01:29:39;98261.00;;;7.06
69545;BMP180;56766;52.260;20.746;2024-02-23T01:32:06;98263.80;;;7.04
69545;BMP180;56766;52.260;20.746;2024-02-23T01:34:32;98263.80;;;7.10
69545;BMP180;56766;52.260;20.746;2024-02-23T01:37:00;98263.00;;;7.10
69545;BMP180;56766;52.260;20.746;2024-02-23T01:39:26;98267.00;;;7.10
69545;BMP180;56766;52.260;20.746;2024-02-23T01:41:53;98262.00;;;7.10
69545;BMP180;56766;52.260;20.746;2024-02-23T01:44:21;98271.40;;;7.16
69545;BMP180;56766;52.260;20.746;2024-02-23T01:46:50;98266.60;;;7.20
69545;BMP180;56766;52.260;20.746;2024-02-23T01:49:18;98268.60;;;7.20
69545;BMP180;56766;52.260;20.746;2024-02-23T01:51:44;98262.40;;;7.20
69545;BMP180;56766;52.260;20.746;2024-02-23T01:54:11;98259.00;;;7.20
69545;BMP180;56766;52.260;20.746;2024-02-23T01:56:38;98257.80;;;7.20
69545;BMP180;56766;52.260;20.746;2024-02-23T01:59:11;98251.80;;;7.18
69545;BMP180;56766;52.260;20.746;2024-02-23T02:01:43;98250.40;;;7.20
69545;BMP180;56766;52.260;20.746;2024-02-23T02:04:10;98247.20;;;7.20
69545;BMP180;56766;52.260;20.746;2024-02-23T02:06:37;98247.40;;;7.20
69545;BMP180;56766;52.260;20.746;2024-02-23T02:09:05;98248.20;;;7.20
69545;BMP180;56766;52.260;20.746;2024-02-23T02:11:32;98246.00;;;7.20
69545;BMP180;56766;52.260;20.746;2024-02-23T02:13:58;98236.40;;;7.20
69545;BMP180;56766;52.260;20.746;2024-02-23T02:16:25;98240.80;;;7.20
69545;BMP180;56766;52.260;20.746;2024-02-23T02:18:52;98236.60;;;7.20
69545;BMP180;56766;52.260;20.746;2024-02-23T02:21:19;98238.60;;;7.20
69545;BMP180;56766;52.260;20.746;2024-02-23T02:23:50;98241.00;;;7.18
69545;BMP180;56766;52.260;20.746;2024-02-23T02:26:16;98241.40;;;7.18
69545;BMP180;56766;52.260;20.746;2024-02-23T02:28:43;98238.00;;;7.16
69545;BMP180;56766;52.260;20.746;2024-02-23T02:31:10;98236.80;;;7.12
69545;BMP180;56766;52.260;20.746;2024-02-23T02:33:36;98237.80;;;7.14
69545;BMP180;56766;52.260;20.746;2024-02-23T02:36:03;98239.20;;;7.12
69545;BMP180;56766;52.260;20.746;2024-02-23T02:38:30;98239.80;;;7.10
69545;BMP180;56766;52.260;20.746;2024-02-23T02:40:57;98239.40;;;7.10
69545;BMP180;56766;52.260;20.746;2024-02-23T02:43:27;98238.20;;;7.12
69545;BMP180;56766;52.260;20.746;2024-02-23T02:45:54;98238.20;;;7.10
69545;BMP180;56766;52.260;20.746;2024-02-23T02:48:20;98242.80;;;7.10
69545;BMP180;56766;52.260;20.746;2024-02-23T02:50:47;98246.20;;;7.10
69545;BMP180;56766;52.260;20.746;2024-02-23T02:53:14;98247.80;;;7.18
69545;BMP180;56766;52.260;20.746;2024-02-23T02:55:42;98252.60;;;7.16
69545;BMP180;56766;52.260;20.746;2024-02-23T02:58:11;98248.00;;;7.18
69545;BMP180;56766;52.260;20.746;2024-02-23T03:00:40;98247.80;;;7.20
69545;BMP180;56766;52.260;20.746;2024-02-23T03:03:07;98247.80;;;7.14
69545;BMP180;56766;52.260;20.746;2024-02-23T03:05:33;98247.40;;;7.10
69545;BMP180;56766;52.260;20.746;2024-02-23T03:08:00;98253.40;;;7.10
69545;BMP180;56766;52.260;20.746;2024-02-23T03:10:27;98253.20;;;7.10
69545;BMP180;56766;52.260;20.746;2024-02-23T03:12:53;98252.20;;;7.10
69545;BMP180;56766;52.260;20.746;2024-02-23T03:15:20;98248.00;;;7.10
69545;BMP180;56766;52.260;20.746;2024-02-23T03:17:47;98257.60;;;7.04
69545;BMP180;56766;52.260;20.746;2024-02-23T03:20:15;98256.80;;;7.00
69545;BMP180;56766;52.260;20.746;2024-02-23T03:22:42;98259.80;;;7.00
69545;BMP180;56766;52.260;20.746;2024-02-23T03:25:09;98267.40;;;7.00
69545;BMP180;56766;52.260;20.746;2024-02-23T03:27:37;98269.20;;;7.00
69545;BMP180;56766;52.260;20.746;2024-02-23T03:30:05;98266.00;;;7.00
69545;BMP180;56766;52.260;20.746;2024-02-23T03:32:34;98268.40;;;7.00
69545;BMP180;56766;52.260;20.746;2024-02-23T03:35:06;98266.80;;;6.98
69545;BMP180;56766;52.260;20.746;2024-02-23T03:37:34;98271.80;;;7.00
69545;BMP180;56766;52.260;20.746;2024-02-23T03:40:01;98277.00;;;6.96
69545;BMP180;56766;52.260;20.746;2024-02-23T03:42:28;98276.60;;;6.96
69545;BMP180;56766;52.260;20.746;2024-02-23T03:44:55;98287.60;;;6.92
69545;BMP180;56766;52.260;20.746;2024-02-23T03:47:22;98290.00;;;6.92
69545;BMP180;56766;52.260;20.746;2024-02-23T03:49:48;98293.60;;;6.90
69545;BMP180;56766;52.260;20.746;2024-02-23T03:52:15;98292.60;;;6.90
69545;BMP180;56766;52.260;20.746;2024-02-23T03:54:42;98297.60;;;6.90
69545;BMP180;56766;52.260;20.746;2024-02-23T03:57:09;98303.00;;;6.90
69545;BMP180;56766;52.260;20.746;2024-02-23T03:59:36;98303.00;;;6.90
69545;BMP180;56766;52.260;20.746;2024-02-23T04:02:04;98300.60;;;6.90
69545;BMP180;56766;52.260;20.746;2024-02-23T04:04:31;98306.00;;;6.90
69545;BMP180;56766;52.260;20.746;2024-02-23T04:06:58;98309.00;;;6.82
69545;BMP180;56766;52.260;20.746;2024-02-23T04:09:24;98311.20;;;6.80
69545;BMP180;56766;52.260;20.746;2024-02-23T04:11:51;98313.20;;;6.80
69545;BMP180;56766;52.260;20.746;2024-02-23T04:14:18;98313.20;;;6.80
69545;BMP180;56766;52.260;20.746;2024-02-23T04:16:44;98311.80;;;6.80
69545;BMP180;56766;52.260;20.746;2024-02-23T04:19:11;98313.20;;;6.80
69545;BMP180;56766;52.260;20.746;2024-02-23T04:21:38;98312.40;;;6.80
69545;BMP180;56766;52.260;20.746;2024-02-23T04:24:05;98319.20;;;6.80
69545;BMP180;56766;52.260;20.746;2024-02-23T04:26:33;98323.80;;;6.80
69545;BMP180;56766;52.260;20.746;2024-02-23T04:29:00;98322.60;;;6.80
69545;BMP180;56766;52.260;20.746;2024-02-23T04:31:27;98327.60;;;6.80
69545;BMP180;56766;52.260;20.746;2024-02-23T04:33:53;98327.20;;;6.80
69545;BMP180;56766;52.260;20.746;2024-02-23T04:36:20;98330.00;;;6.80
69545;BMP180;56766;52.260;20.746;2024-02-23T04:38:48;98332.20;;;6.80
69545;BMP180;56766;52.260;20.746;2024-02-23T04:41:20;98332.80;;;6.80
69545;BMP180;56766;52.260;20.746;2024-02-23T04:43:49;98332.40;;;6.80
69545;BMP180;56766;52.260;20.746;2024-02-23T04:46:16;98330.80;;;6.80
69545;BMP180;56766;52.260;20.746;2024-02-23T04:48:44;98335.40;;;6.80
69545;BMP180;56766;52.260;20.746;2024-02-23T04:51:10;98338.80;;;6.80
69545;BMP180;56766;52.260;20.746;2024-02-23T04:53:37;98340.00;;;6.80
69545;BMP180;56766;52.260;20.746;2024-02-23T04:56:05;98342.60;;;6.80
69545;BMP180;56766;52.260;20.746;2024-02-23T04:58:33;98344.00;;;6.80
69545;BMP180;56766;52.260;20.746;2024-02-23T05:01:00;98342.40;;;6.80
69545;BMP180;56766;52.260;20.746;2024-02-23T05:03:27;98345.40;;;6.82
69545;BMP180;56766;52.260;20.746;2024-02-23T05:05:54;98349.80;;;6.90
69545;BMP180;56766;52.260;20.746;2024-02-23T05:08:21;98356.40;;;6.90
69545;BMP180;56766;52.260;20.746;2024-02-23T05:10:48;98356.20;;;6.90
69545;BMP180;56766;52.260;20.746;2024-02-23T05:13:15;98361.80;;;6.90
69545;BMP180;56766;52.260;20.746;2024-02-23T05:15:42;98364.80;;;6.90
69545;BMP180;56766;52.260;20.746;2024-02-23T05:18:08;98366.20;;;6.90
69545;BMP180;56766;52.260;20.746;2024-02-23T05:20:35;98371.40;;;6.90
69545;BMP180;56766;52.260;20.746;2024-02-23T05:23:02;98372.80;;;6.90
69545;BMP180;56766;52.260;20.746;2024-02-23T05:25:29;98379.20;;;6.90
69545;BMP180;56766;52.260;20.746;2024-02-23T05:27:56;98382.60;;;6.90
69545;BMP180;56766;52.260;20.746;2024-02-23T05:30:24;98379.80;;;6.90
69545;BMP180;56766;52.260;20.746;2024-02-23T05:32:53;98384.60;;;6.90
69545;BMP180;56766;52.260;20.746;2024-02-23T05:35:20;98386.40;;;6.94
69545;BMP180;56766;52.260;20.746;2024-02-23T05:37:48;98388.60;;;7.00
69545;BMP180;56766;52.260;20.746;2024-02-23T05:40:16;98389.40;;;7.00
69545;BMP180;56766;52.260;20.746;2024-02-23T05:42:43;98394.20;;;7.00
69545;BMP180;56766;52.260;20.746;2024-02-23T05:45:10;98398.00;;;7.00
69545;BMP180;56766;52.260;20.746;2024-02-23T05:47:39;98406.00;;;7.00
69545;BMP180;56766;52.260;20.746;2024-02-23T05:50:08;98407.80;;;7.02
69545;BMP180;56766;52.260;20.746;2024-02-23T05:52:36;98409.00;;;7.10
69545;BMP180;56766;52.260;20.746;2024-02-23T05:55:04;98407.60;;;7.10
69545;BMP180;56766;52.260;20.746;2024-02-23T05:57:30;98408.20;;;7.10
69545;BMP180;56766;52.260;20.746;2024-02-23T05:59:57;98413.60;;;7.10
69545;BMP180;56766;52.260;20.746;2024-02-23T06:02:25;98421.60;;;7.10
69545;BMP180;56766;52.260;20.746;2024-02-23T06:04:52;98418.80;;;7.10
69545;BMP180;56766;52.260;20.746;2024-02-23T06:07:18;98419.40;;;7.10
69545;BMP180;56766;52.260;20.746;2024-02-23T06:09:47;98422.20;;;7.12
69545;BMP180;56766;52.260;20.746;2024-02-23T06:12:14;98429.40;;;7.14
69545;BMP180;56766;52.260;20.746;2024-02-23T06:14:40;98427.40;;;7.16
69545;BMP180;56766;52.260;20.746;2024-02-23T06:17:07;98432.20;;;7.20
69545;BMP180;56766;52.260;20.746;2024-02-23T06:19:35;98435.20;;;7.20
69545;BMP180;56766;52.260;20.746;2024-02-23T06:22:02;98436.00;;;7.20
69545;BMP180;56766;52.260;20.746;2024-02-23T06:24:29;98444.40;;;7.20
69545;BMP180;56766;52.260;20.746;2024-02-23T06:26:57;98442.60;;;7.20
69545;BMP180;56766;52.260;20.746;2024-02-23T06:29:25;98444.40;;;7.24
69545;BMP180;56766;52.260;20.746;2024-02-23T06:31:52;98449.80;;;7.26
69545;BMP180;56766;52.260;20.746;2024-02-23T06:34:19;98453.60;;;7.30
69545;BMP180;56766;52.260;20.746;2024-02-23T06:36:46;98458.20;;;7.30
69545;BMP180;56766;52.260;20.746;2024-02-23T06:39:13;98465.80;;;7.30
69545;BMP180;56766;52.260;20.746;2024-02-23T06:41:39;98467.00;;;7.32
69545;BMP180;56766;52.260;20.746;2024-02-23T06:44:06;98472.20;;;7.40
69545;BMP180;56766;52.260;20.746;2024-02-23T06:46:33;98478.40;;;7.40
69545;BMP180;56766;52.260;20.746;2024-02-23T06:49:00;98480.80;;;7.40
69545;BMP180;56766;52.260;20.746;2024-02-23T06:51:26;98478.00;;;7.40
69545;BMP180;56766;52.260;20.746;2024-02-23T06:53:54;98481.20;;;7.46
69545;BMP180;56766;52.260;20.746;2024-02-23T06:56:23;98481.40;;;7.50
69545;BMP180;56766;52.260;20.746;2024-02-23T06:58:50;98484.80;;;7.50
69545;BMP180;56766;52.260;20.746;2024-02-23T07:01:16;98486.60;;;7.50
69545;BMP180;56766;52.260;20.746;2024-02-23T07:03:44;98491.40;;;7.50
69545;BMP180;56766;52.260;20.746;2024-02-23T07:06:11;98489.00;;;7.50
69545;BMP180;56766;52.260;20.746;2024-02-23T07:08:38;98497.00;;;7.50
69545;BMP180;56766;52.260;20.746;2024-02-23T07:11:05;98504.80;;;7.58
69545;BMP180;56766;52.260;20.746;2024-02-23T07:13:32;98499.00;;;7.60
69545;BMP180;56766;52.260;20.746;2024-02-23T07:16:00;98504.00;;;7.60
69545;BMP180;56766;52.260;20.746;2024-02-23T07:18:27;98510.60;;;7.62
69545;BMP180;56766;52.260;20.746;2024-02-23T07:20:54;98508.80;;;7.66
69545;BMP180;56766;52.260;20.746;2024-02-23T07:23:20;98513.80;;;7.70
69545;BMP180;56766;52.260;20.746;2024-02-23T07:25:49;98515.60;;;7.70
69545;BMP180;56766;52.260;20.746;2024-02-23T07:28:18;98520.40;;;7.70
69545;BMP180;56766;52.260;20.746;2024-02-23T07:30:49;98532.20;;;7.70
69545;BMP180;56766;52.260;20.746;2024-02-23T07:33:16;98530.80;;;7.70
69545;BMP180;56766;52.260;20.746;2024-02-23T07:35:43;98533.20;;;7.80
69545;BMP180;56766;52.260;20.746;2024-02-23T07:38:10;98538.40;;;7.80
69545;BMP180;56766;52.260;20.746;2024-02-23T07:40:37;98528.80;;;7.80
69545;BMP180;56766;52.260;20.746;2024-02-23T07:43:04;98537.40;;;7.80
69545;BMP180;56766;52.260;20.746;2024-02-23T07:45:31;98543.20;;;7.80
69545;BMP180;56766;52.260;20.746;2024-02-23T07:47:59;98546.00;;;7.80
69545;BMP180;56766;52.260;20.746;2024-02-23T07:50:26;98550.80;;;7.90
69545;BMP180;56766;52.260;20.746;2024-02-23T07:52:53;98561.40;;;7.90
69545;BMP180;56766;52.260;20.746;2024-02-23T07:55:20;98561.00;;;7.90
69545;BMP180;56766;52.260;20.746;2024-02-23T07:57:47;98572.00;;;7.94
69545;BMP180;56766;52.260;20.746;2024-02-23T08:00:14;98572.40;;;8.00
69545;BMP180;56766;52.260;20.746;2024-02-23T08:02:41;98568.00;;;8.00
69545;BMP180;56766;52.260;20.746;2024-02-23T08:05:08;98568.40;;;8.00
69545;BMP180;56766;52.260;20.746;2024-02-23T08:07:37;98583.60;;;8.00
69545;BMP180;56766;52.260;20.746;2024-02-23T08:10:04;98583.80;;;8.00
69545;BMP180;56766;52.260;20.746;2024-02-23T08:12:31;98585.80;;;8.10
69545;BMP180;56766;52.260;20.746;2024-02-23T08:14:58;98589.20;;;8.10
69545;BMP180;56766;52.260;20.746;2024-02-23T08:17:25;98589.60;;;8.12
69545;BMP180;56766;52.260;20.746;2024-02-23T08:19:52;98598.00;;;8.20
69545;BMP180;56766;52.260;20.746;2024-02-23T08:22:20;98594.60;;;8.30
69545;BMP180;56766;52.260;20.746;2024-02-23T08:24:46;98601.60;;;8.30
69545;BMP180;56766;52.260;20.746;2024-02-23T08:27:13;98604.00;;;8.40
69545;BMP180;56766;52.260;20.746;2024-02-23T08:29:40;98607.80;;;8.48
69545;BMP180;56766;52.260;20.746;2024-02-23T08:32:07;98606.80;;;8.50
69545;BMP180;56766;52.260;20.746;2024-02-23T08:34:34;98615.20;;;8.60
69545;BMP180;56766;52.260;20.746;2024-02-23T08:37:01;98616.60;;;8.60
69545;BMP180;56766;52.260;20.746;2024-02-23T08:39:29;98620.60;;;8.70
69545;BMP180;56766;52.260;20.746;2024-02-23T08:41:55;98613.20;;;8.70
69545;BMP180;56766;52.260;20.746;2024-02-23T08:44:22;98624.40;;;8.80
69545;BMP180;56766;52.260;20.746;2024-02-23T08:46:50;98625.00;;;8.90
69545;BMP180;56766;52.260;20.746;2024-02-23T08:49:16;98631.40;;;9.00
69545;BMP180;56766;52.260;20.746;2024-02-23T08:51:43;98634.20;;;9.10
69545;BMP180;56766;52.260;20.746;2024-02-23T08:54:10;98636.20;;;9.20
69545;BMP180;56766;52.260;20.746;2024-02-23T08:56:38;98636.40;;;9.30
69545;BMP180;56766;52.260;20.746;2024-02-23T08:59:09;98642.60;;;9.42
69545;BMP180;56766;52.260;20.746;2024-02-23T09:01:36;98641.80;;;9.60
69545;BMP180;56766;52.260;20.746;2024-02-23T09:04:04;98645.40;;;9.70
69545;BMP180;56766;52.260;20.746;2024-02-23T09:06:31;98652.40;;;9.90
69545;BMP180;56766;52.260;20.746;2024-02-23T09:08:59;98648.40;;;10.00
69545;BMP180;56766;52.260;20.746;2024-02-23T09:11:26;98652.00;;;10.10
69545;BMP180;56766;52.260;20.746;2024-02-23T09:13:53;98656.40;;;10.30
69545;BMP180;56766;52.260;20.746;2024-02-23T09:16:19;98658.80;;;10.40
69545;BMP180;56766;52.260;20.746;2024-02-23T09:18:49;98658.40;;;10.48
69545;BMP180;56766;52.260;20.746;2024-02-23T09:21:16;98661.00;;;10.50
69545;BMP180;56766;52.260;20.746;2024-02-23T09:23:43;98663.40;;;10.60
69545;BMP180;56766;52.260;20.746;2024-02-23T09:26:10;98664.20;;;10.60
69545;BMP180;56766;52.260;20.746;2024-02-23T09:28:38;98665.00;;;10.60
69545;BMP180;56766;52.260;20.746;2024-02-23T09:31:07;98667.60;;;10.60
69545;BMP180;56766;52.260;20.746;2024-02-23T09:33:34;98667.00;;;10.54
69545;BMP180;56766;52.260;20.746;2024-02-23T09:36:01;98669.00;;;10.50
69545;BMP180;56766;52.260;20.746;2024-02-23T09:38:28;98672.00;;;10.50
69545;BMP180;56766;52.260;20.746;2024-02-23T09:40:56;98677.20;;;10.50
69545;BMP180;56766;52.260;20.746;2024-02-23T09:43:29;98680.20;;;10.48
69545;BMP180;56766;52.260;20.746;2024-02-23T09:45:57;98686.80;;;10.40
69545;BMP180;56766;52.260;20.746;2024-02-23T09:48:25;98683.80;;;10.32
69545;BMP180;56766;52.260;20.746;2024-02-23T09:50:52;98685.40;;;10.30
69545;BMP180;56766;52.260;20.746;2024-02-23T09:53:22;98691.60;;;10.30
69545;BMP180;56766;52.260;20.746;2024-02-23T09:55:51;98699.00;;;10.30
69545;BMP180;56766;52.260;20.746;2024-02-23T09:58:20;98703.00;;;10.40
69545;BMP180;56766;52.260;20.746;2024-02-23T10:00:48;98701.60;;;10.50
69545;BMP180;56766;52.260;20.746;2024-02-23T10:03:16;98697.40;;;10.60
69545;BMP180;56766;52.260;20.746;2024-02-23T10:05:43;98706.40;;;10.70
69545;BMP180;56766;52.260;20.746;2024-02-23T10:08:12;98706.40;;;10.80
69545;BMP180;56766;52.260;20.746;2024-02-23T10:10:39;98713.00;;;10.90
69545;BMP180;56766;52.260;20.746;2024-02-23T10:13:05;98714.80;;;10.92
69545;BMP180;56766;52.260;20.746;2024-02-23T10:15:32;98717.20;;;10.90
69545;BMP180;56766;52.260;20.746;2024-02-23T10:17:59;98722.60;;;10.90
69545;BMP180;56766;52.260;20.746;2024-02-23T10:20:26;98718.60;;;10.90
69545;BMP180;56766;52.260;20.746;2024-02-23T10:22:54;98719.80;;;10.90
69545;BMP180;56766;52.260;20.746;2024-02-23T10:25:21;98718.20;;;10.90
69545;BMP180;56766;52.260;20.746;2024-02-23T10:27:48;98727.60;;;10.90
69545;BMP180;56766;52.260;20.746;2024-02-23T10:30:15;98727.00;;;10.90
69545;BMP180;56766;52.260;20.746;2024-02-23T10:32:42;98732.20;;;10.84
69545;BMP180;56766;52.260;20.746;2024-02-23T10:35:14;98737.60;;;10.80
69545;BMP180;56766;52.260;20.746;2024-02-23T10:37:44;98735.60;;;10.78
69545;BMP180;56766;52.260;20.746;2024-02-23T10:40:12;98739.00;;;10.70
69545;BMP180;56766;52.260;20.746;2024-02-23T10:42:45;98740.40;;;10.70
69545;BMP180;56766;52.260;20.746;2024-02-23T10:45:20;98751.60;;;10.60
69545;BMP180;56766;52.260;20.746;2024-02-23T10:47:50;98750.60;;;10.56
69545;BMP180;56766;52.260;20.746;2024-02-23T10:50:18;98757.20;;;10.50
69545;BMP180;56766;52.260;20.746;2024-02-23T10:52:46;98758.40;;;10.50
69545;BMP180;56766;52.260;20.746;2024-02-23T10:55:15;98757.40;;;10.50
69545;BMP180;56766;52.260;20.746;2024-02-23T10:57:43;98758.00;;;10.40
69545;BMP180;56766;52.260;20.746;2024-02-23T11:00:14;98764.20;;;10.40
69545;BMP180;56766;52.260;20.746;2024-02-23T11:02:49;98769.60;;;10.40
69545;BMP180;56766;52.260;20.746;2024-02-23T11:05:19;98773.60;;;10.40
69545;BMP180;56766;52.260;20.746;2024-02-23T11:07:49;98776.60;;;10.40
69545;BMP180;56766;52.260;20.746;2024-02-23T11:10:19;98779.60;;;10.50
69545;BMP180;56766;52.260;20.746;2024-02-23T11:12:58;98777.40;;;10.50
69545;BMP180;56766;52.260;20.746;2024-02-23T11:15:29;98783.80;;;10.50
69545;BMP180;56766;52.260;20.746;2024-02-23T11:17:57;98790.00;;;10.54
69545;BMP180;56766;52.260;20.746;2024-02-23T11:20:41;98789.20;;;10.60
69545;BMP180;56766;52.260;20.746;2024-02-23T11:23:14;98799.40;;;10.60
69545;BMP180;56766;52.260;20.746;2024-02-23T11:25:42;98803.20;;;10.50
69545;BMP180;56766;52.260;20.746;2024-02-23T11:28:29;98794.20;;;10.54
69545;BMP180;56766;52.260;20.746;2024-02-23T11:31:50;98801.60;;;10.58
69545;BMP180;56766;52.260;20.746;2024-02-23T11:35:14;98810.00;;;10.60
69545;BMP180;56766;52.260;20.746;2024-02-23T11:38:04;98813.00;;;10.60
69545;BMP180;56766;52.260;20.746;2024-02-23T11:40:48;98817.20;;;10.70
69545;BMP180;56766;52.260;20.746;2024-02-23T11:43:16;98816.00;;;10.74
69545;BMP180;56766;52.260;20.746;2024-02-23T11:46:03;98820.60;;;10.80
69545;BMP180;56766;52.260;20.746;2024-02-23T11:48:49;98828.60;;;10.80
69545;BMP180;56766;52.260;20.746;2024-02-23T11:51:23;98834.20;;;10.80
69545;BMP180;56766;52.260;20.746;2024-02-23T11:54:07;98835.60;;;10.88
69545;BMP180;56766;52.260;20.746;2024-02-23T11:56:40;98835.00;;;10.90
69545;BMP180;56766;52.260;20.746;2024-02-23T11:59:08;98842.20;;;10.90
69545;BMP180;56766;52.260;20.746;2024-02-23T12:01:36;98840.40;;;11.00
69545;BMP180;56766;52.260;20.746;2024-02-23T12:04:03;98847.80;;;11.00
69545;BMP180;56766;52.260;20.746;2024-02-23T12:06:50;98847.00;;;11.00
69545;BMP180;56766;52.260;20.746;2024-02-23T12:09:17;98849.80;;;11.00
69545;BMP180;56766;52.260;20.746;2024-02-23T12:11:48;98860.20;;;11.02
69545;BMP180;56766;52.260;20.746;2024-02-23T12:14:16;98856.40;;;11.08
69545;BMP180;56766;52.260;20.746;2024-02-23T12:16:46;98859.40;;;11.10
69545;BMP180;56766;52.260;20.746;2024-02-23T12:19:15;98864.80;;;11.10
69545;BMP180;56766;52.260;20.746;2024-02-23T12:22:01;98863.80;;;11.12
69545;BMP180;56766;52.260;20.746;2024-02-23T12:24:29;98864.80;;;11.10
69545;BMP180;56766;52.260;20.746;2024-02-23T12:26:56;98868.80;;;11.10
69545;BMP180;56766;52.260;20.746;2024-02-23T12:29:26;98875.80;;;11.10
69545;BMP180;56766;52.260;20.746;2024-02-23T12:32:13;98876.20;;;11.10
69545;BMP180;56766;52.260;20.746;2024-02-23T12:34:44;98877.00;;;11.10
69545;BMP180;56766;52.260;20.746;2024-02-23T12:37:15;98874.80;;;11.10
69545;BMP180;56766;52.260;20.746;2024-02-23T12:39:44;98882.80;;;11.10
69545;BMP180;56766;52.260;20.746;2024-02-23T12:42:11;98883.20;;;11.10
69545;BMP180;56766;52.260;20.746;2024-02-23T12:44:45;98887.40;;;11.00
69545;BMP180;56766;52.260;20.746;2024-02-23T12:47:25;98888.80;;;11.00
69545;BMP180;56766;52.260;20.746;2024-02-23T12:49:53;98887.20;;;10.98
69545;BMP180;56766;52.260;20.746;2024-02-23T12:52:20;98887.40;;;10.98
69545;BMP180;56766;52.260;20.746;2024-02-23T12:54:50;98897.40;;;10.90
69545;BMP180;56766;52.260;20.746;2024-02-23T12:57:17;98897.40;;;10.86
69545;BMP180;56766;52.260;20.746;2024-02-23T12:59:44;98904.20;;;10.80
69545;BMP180;56766;52.260;20.746;2024-02-23T13:02:12;98904.20;;;10.80
69545;BMP180;56766;52.260;20.746;2024-02-23T13:04:38;98901.60;;;10.80
69545;BMP180;56766;52.260;20.746;2024-02-23T13:07:05;98904.40;;;10.80
69545;BMP180;56766;52.260;20.746;2024-02-23T13:09:32;98907.20;;;10.80
69545;BMP180;56766;52.260;20.746;2024-02-23T13:11:59;98907.20;;;10.80
69545;BMP180;56766;52.260;20.746;2024-02-23T13:14:25;98908.00;;;10.80
69545;BMP180;56766;52.260;20.746;2024-02-23T13:16:52;98907.80;;;10.80
69545;BMP180;56766;52.260;20.746;2024-02-23T13:19:19;98914.20;;;10.90
69545;BMP180;56766;52.260;20.746;2024-02-23T13:21:45;98918.60;;;10.90
69545;BMP180;56766;52.260;20.746;2024-02-23T13:24:12;98922.80;;;10.90
69545;BMP180;56766;52.260;20.746;2024-02-23T13:26:38;98929.00;;;10.90
69545;BMP180;56766;52.260;20.746;2024-02-23T13:29:06;98929.60;;;10.90
69545;BMP180;56766;52.260;20.746;2024-02-23T13:31:33;98931.20;;;10.80
69545;BMP180;56766;52.260;20.746;2024-02-23T13:34:00;98936.40;;;10.70
69545;BMP180;56766;52.260;20.746;2024-02-23T13:36:26;98938.60;;;10.70
69545;BMP180;56766;52.260;20.746;2024-02-23T13:38:53;98944.00;;;10.60
69545;BMP180;56766;52.260;20.746;2024-02-23T13:41:20;98948.20;;;10.50
69545;BMP180;56766;52.260;20.746;2024-02-23T13:43:47;98949.60;;;10.50
69545;BMP180;56766;52.260;20.746;2024-02-23T13:46:13;98952.00;;;10.50
69545;BMP180;56766;52.260;20.746;2024-02-23T13:48:40;98954.00;;;10.50
69545;BMP180;56766;52.260;20.746;2024-02-23T13:51:07;98958.20;;;10.50
69545;BMP180;56766;52.260;20.746;2024-02-23T13:53:34;98959.00;;;10.50
69545;BMP180;56766;52.260;20.746;2024-02-23T13:56:03;98954.00;;;10.46
69545;BMP180;56766;52.260;20.746;2024-02-23T13:58:30;98956.80;;;10.40
69545;BMP180;56766;52.260;20.746;2024-02-23T14:00:57;98954.60;;;10.40
69545;BMP180;56766;52.260;20.746;2024-02-23T14:03:23;98959.00;;;10.32
69545;BMP180;56766;52.260;20.746;2024-02-23T14:05:50;98951.40;;;10.30
69545;BMP180;56766;52.260;20.746;2024-02-23T14:08:18;98950.80;;;10.30
69545;BMP180;56766;52.260;20.746;2024-02-23T14:10:44;98960.40;;;10.30